Time;durP1;ratioP1;P1;durP2;ratioP2;P2;SDS_P1;SDS_P2;PMS_P1;PMS_P2;Temp;Humidity;BMP_temperature;BMP_pressure;BME280_temperature;BME280_humidity;BME280_pressure;Samples;Min_cycle;Max_cycle;Signal;HPM_P1;HPM_P2
2020/12/11 00:00:21;;;;;;;56.40;19.90;;;3.00;91.90;;;;;;4975378;28;20495;-62
2020/12/11 00:02:47;;;;;;;52.72;22.42;;;3.10;91.50;;;;;;4975281;28;20176;-62
2020/12/11 00:05:13;;;;;;;54.40;19.77;;;3.10;74.60;;;;;;4974149;28;20187;-63
2020/12/11 00:07:40;;;;;;;52.80;20.80;;;3.20;74.40;;;;;;4975804;28;20490;-63
2020/12/11 00:10:08;;;;;;;58.92;22.33;;;3.30;75.20;;;;;;4975300;28;20424;-62
2020/12/11 00:12:34;;;;;;;54.80;20.90;;;3.40;62.00;;;;;;4974746;28;20184;-63
2020/12/11 00:15:00;;;;;;;58.50;20.45;;;3.30;47.60;;;;;;4976042;28;20216;-63
2020/12/11 00:17:26;;;;;;;47.55;21.20;;;3.30;36.40;;;;;;4975214;28;20226;-62
2020/12/11 00:19:56;;;;;;;57.47;23.33;;;3.20;1.00;;;;;;4975783;28;20621;-63
2020/12/11 00:22:22;;;;;;;51.08;20.90;;;3.30;1.00;;;;;;4975346;28;20462;-62
2020/12/11 00:24:49;;;;;;;63.85;23.80;;;3.20;1.00;;;;;;4975096;28;20334;-63
2020/12/11 00:27:15;;;;;;;63.08;21.55;;;3.20;1.00;;;;;;4975022;28;20187;-61
2020/12/11 00:29:40;;;;;;;66.77;21.57;;;3.30;1.00;;;;;;4976919;28;20629;-62
2020/12/11 00:32:06;;;;;;;53.07;21.57;;;3.00;1.00;;;;;;4979052;28;20505;-62
2020/12/11 00:34:32;;;;;;;58.22;19.67;;;3.00;1.00;;;;;;4978772;28;20423;-61
2020/12/11 00:36:58;;;;;;;61.97;23.57;;;2.80;1.00;;;;;;4978559;28;20641;-62
2020/12/11 00:39:24;;;;;;;68.73;21.20;;;2.80;5.50;;;;;;4978530;28;20416;-62
2020/12/11 00:41:50;;;;;;;61.07;21.80;;;2.80;22.20;;;;;;4977661;28;20267;-61
2020/12/11 00:44:16;;;;;;;65.93;23.42;;;2.80;39.80;;;;;;4978895;28;20246;-61
2020/12/11 00:46:41;;;;;;;59.90;21.70;;;2.80;51.40;;;;;;4977293;28;20191;-61
2020/12/11 00:49:07;;;;;;;60.63;20.70;;;2.90;61.40;;;;;;4978462;28;20183;-61
2020/12/11 00:51:33;;;;;;;61.27;21.80;;;2.90;76.00;;;;;;4978399;28;20535;-61
2020/12/11 00:53:58;;;;;;;63.00;27.37;;;2.90;77.10;;;;;;4978197;28;20435;-62
2020/12/11 00:56:24;;;;;;;52.87;21.70;;;2.70;74.40;;;;;;4978071;28;20251;-63
2020/12/11 00:58:50;;;;;;;70.37;23.67;;;2.70;84.80;;;;;;4977912;28;20207;-63
2020/12/11 01:01:16;;;;;;;65.35;23.48;;;2.80;94.30;;;;;;4977958;28;20176;-63
2020/12/11 01:03:42;;;;;;;69.78;25.58;;;2.80;98.30;;;;;;4977920;28;20180;-63
2020/12/11 01:06:08;;;;;;;60.10;25.90;;;2.70;97.30;;;;;;4978218;28;20507;-62
2020/12/11 01:08:33;;;;;;;63.33;22.00;;;2.70;99.90;;;;;;4978037;28;20811;-62
2020/12/11 01:10:59;;;;;;;61.93;23.17;;;2.80;99.90;;;;;;4978014;28;20510;-62
2020/12/11 01:13:25;;;;;;;70.72;23.75;;;2.70;99.90;;;;;;4978019;28;20195;-62
2020/12/11 01:15:51;;;;;;;80.93;25.37;;;2.60;99.90;;;;;;4977713;28;20204;-63
2020/12/11 01:18:16;;;;;;;73.43;29.00;;;2.50;99.90;;;;;;4977621;28;20184;-64
2020/12/11 01:20:42;;;;;;;72.77;25.57;;;2.60;99.90;;;;;;4977934;28;20191;-63
2020/12/11 01:23:07;;;;;;;64.10;23.70;;;2.60;99.90;;;;;;4976390;28;20188;-62
2020/12/11 01:25:33;;;;;;;64.43;24.33;;;2.60;99.90;;;;;;4977510;28;20191;-62
2020/12/11 01:27:59;;;;;;;59.47;23.63;;;2.50;99.90;;;;;;4976380;28;20267;-61
2020/12/11 01:30:24;;;;;;;57.80;21.00;;;2.60;99.90;;;;;;4976442;28;20180;-61
2020/12/11 01:32:50;;;;;;;60.77;24.00;;;2.40;99.90;;;;;;4977489;28;20183;-62
2020/12/11 01:35:15;;;;;;;70.27;24.10;;;2.40;99.90;;;;;;4977150;28;20191;-62
2020/12/11 01:37:41;;;;;;;59.70;23.37;;;2.40;99.90;;;;;;4977215;28;20219;-62
2020/12/11 01:40:06;;;;;;;62.30;21.90;;;2.40;99.90;;;;;;4976817;28;20648;-62
2020/12/11 01:42:32;;;;;;;79.93;25.83;;;2.50;99.90;;;;;;4977239;28;20270;-63
2020/12/11 01:44:58;;;;;;;74.60;25.97;;;2.50;99.90;;;;;;4976827;28;20436;-63
2020/12/11 01:47:24;;;;;;;64.83;23.33;;;2.40;99.90;;;;;;4977434;28;20278;-62
2020/12/11 01:49:53;;;;;;;62.35;25.73;;;2.60;99.90;;;;;;4977225;28;20188;-62
2020/12/11 01:52:19;;;;;;;71.05;24.83;;;2.70;99.90;;;;;;4976824;28;20613;-61
2020/12/11 01:54:46;;;;;;;61.30;20.95;;;2.60;99.90;;;;;;4977155;28;20195;-62
2020/12/11 01:57:42;;;;;;;67.80;24.45;;;2.70;99.90;;;;;;4976952;28;20299;-61
2020/12/11 02:00:10;;;;;;;69.55;22.65;;;2.70;99.90;;;;;;4956390;28;20204;-61
2020/12/11 02:02:37;;;;;;;67.13;25.55;;;2.60;99.90;;;;;;4977098;28;20635;-62
2020/12/11 02:05:07;;;;;;;65.80;23.05;;;2.60;99.90;;;;;;4975541;28;20562;-62
2020/12/11 02:07:40;;;;;;;61.35;24.77;;;2.70;99.90;;;;;;4976666;28;20230;-63
2020/12/11 02:10:07;;;;;;;58.53;22.05;;;2.70;99.90;;;;;;4977031;28;20184;-63
2020/12/11 02:12:33;;;;;;;52.10;21.73;;;2.50;99.90;;;;;;4976940;28;20203;-63
2020/12/11 02:14:59;;;;;;;66.57;23.57;;;2.40;99.90;;;;;;4976559;28;20192;-63
2020/12/11 02:17:28;;;;;;;56.17;22.33;;;2.40;99.90;;;;;;4976779;28;20210;-62
2020/12/11 02:19:55;;;;;;;64.30;24.52;;;2.40;99.90;;;;;;4976486;28;20188;-63
2020/12/11 02:22:20;;;;;;;58.92;21.58;;;2.40;99.90;;;;;;4976321;28;20172;-61
2020/12/11 02:24:46;;;;;;;50.67;21.20;;;2.30;99.90;;;;;;4975990;28;20508;-60
2020/12/11 02:27:11;;;;;;;54.87;23.53;;;2.30;99.90;;;;;;4976415;28;20487;-60
2020/12/11 02:29:37;;;;;;;51.83;19.27;;;2.30;99.90;;;;;;4976413;28;20188;-62
2020/12/11 02:32:03;;;;;;;47.63;20.53;;;2.30;99.90;;;;;;4976230;28;20188;-61
2020/12/11 02:34:28;;;;;;;57.40;22.77;;;2.30;99.90;;;;;;4975884;28;20246;-60
2020/12/11 02:37:00;;;;;;;57.20;22.00;;;2.30;99.90;;;;;;4975982;28;20286;-60
2020/12/11 02:39:26;;;;;;;35.20;13.57;;;2.40;99.90;;;;;;4976499;28;20180;-60
2020/12/11 02:41:52;;;;;;;44.28;18.13;;;2.40;99.90;;;;;;4975998;28;20177;-60
2020/12/11 02:44:17;;;;;;;56.40;19.17;;;2.30;99.90;;;;;;4975573;28;20176;-60
2020/12/11 02:46:43;;;;;;;46.40;18.30;;;2.20;99.90;;;;;;4975805;28;20802;-62
2020/12/11 02:49:09;;;;;;;60.53;20.47;;;2.10;99.90;;;;;;4975783;28;20321;-62
2020/12/11 02:51:34;;;;;;;38.80;19.20;;;2.30;99.90;;;;;;4975163;28;20184;-60
2020/12/11 02:54:00;;;;;;;45.90;20.07;;;2.30;99.90;;;;;;4975806;28;20179;-61
2020/12/11 02:56:26;;;;;;;52.40;19.33;;;2.20;99.90;;;;;;4976644;28;20679;-61
2020/12/11 02:58:51;;;;;;;49.63;19.15;;;2.20;99.90;;;;;;4976511;28;20262;-62
2020/12/11 03:01:17;;;;;;;43.93;18.47;;;2.30;99.90;;;;;;4976607;28;20243;-62
2020/12/11 03:03:42;;;;;;;44.63;17.33;;;2.20;99.90;;;;;;4976399;28;20191;-61
2020/12/11 03:06:08;;;;;;;46.67;18.70;;;2.20;99.90;;;;;;4974963;28;20190;-61
2020/12/11 03:08:34;;;;;;;43.90;16.60;;;2.20;99.90;;;;;;4976030;28;20182;-64
2020/12/11 03:11:00;;;;;;;41.97;17.65;;;2.20;99.90;;;;;;4975719;28;20470;-61
2020/12/11 03:13:26;;;;;;;40.77;18.17;;;2.20;99.90;;;;;;4975103;28;20215;-61
2020/12/11 03:15:51;;;;;;;43.20;17.33;;;2.20;99.90;;;;;;4975455;28;20467;-61
2020/12/11 03:18:17;;;;;;;42.03;18.50;;;2.30;99.90;;;;;;4975338;28;20180;-63
2020/12/11 03:20:43;;;;;;;41.10;18.53;;;2.30;99.90;;;;;;4975418;28;20263;-63
2020/12/11 03:23:08;;;;;;;41.97;18.33;;;2.30;99.90;;;;;;4975217;28;20881;-63
2020/12/11 03:25:34;;;;;;;43.40;17.10;;;2.10;99.90;;;;;;4975389;28;20260;-63
2020/12/11 03:27:59;;;;;;;38.10;16.93;;;2.20;99.90;;;;;;4975497;28;20180;-63
2020/12/11 03:30:25;;;;;;;35.00;14.70;;;2.30;99.90;;;;;;4975495;28;20618;-63
2020/12/11 03:32:51;;;;;;;41.50;15.47;;;2.30;99.90;;;;;;4975289;28;20176;-63
2020/12/11 03:35:17;;;;;;;36.93;15.60;;;2.40;99.90;;;;;;4975690;28;20187;-63
2020/12/11 03:37:42;;;;;;;44.60;16.07;;;2.50;99.90;;;;;;4975735;28;20216;-62
2020/12/11 03:40:08;;;;;;;40.33;16.67;;;2.40;99.90;;;;;;4975516;28;20423;-63
2020/12/11 03:42:33;;;;;;;37.53;16.70;;;2.40;99.90;;;;;;4975229;28;20227;-63
2020/12/11 03:44:59;;;;;;;38.03;17.00;;;2.40;99.90;;;;;;4974795;28;20180;-62
2020/12/11 03:47:28;;;;;;;40.53;16.00;;;2.20;99.90;;;;;;4974964;28;20180;-62
2020/12/11 03:49:54;;;;;;;38.97;17.05;;;2.30;99.90;;;;;;4975418;28;20180;-63
2020/12/11 03:52:19;;;;;;;45.97;18.43;;;2.30;99.90;;;;;;4973963;28;20279;-63
2020/12/11 03:54:45;;;;;;;50.13;17.13;;;2.30;99.90;;;;;;4974531;28;20259;-63
2020/12/11 03:57:10;;;;;;;42.57;18.30;;;2.30;99.90;;;;;;4974944;28;20233;-63
2020/12/11 03:59:36;;;;;;;33.60;14.60;;;2.30;99.90;;;;;;4974142;28;20534;-63
2020/12/11 04:02:02;;;;;;;38.50;14.87;;;2.10;99.90;;;;;;4973928;28;20569;-63
2020/12/11 04:04:27;;;;;;;39.83;16.97;;;2.10;99.90;;;;;;4976220;28;20481;-63
2020/12/11 04:06:53;;;;;;;42.30;18.37;;;2.10;99.90;;;;;;4977692;28;20281;-63
2020/12/11 04:09:18;;;;;;;41.77;17.40;;;2.10;99.90;;;;;;4977298;28;20260;-63
2020/12/11 04:11:44;;;;;;;40.90;15.07;;;2.10;99.90;;;;;;4976352;28;20211;-63
2020/12/11 04:14:09;;;;;;;41.33;16.70;;;2.20;99.90;;;;;;4977250;28;20219;-62
2020/12/11 04:16:35;;;;;;;43.13;16.13;;;2.10;99.90;;;;;;4977209;28;20215;-63
2020/12/11 04:19:01;;;;;;;39.47;17.13;;;2.20;99.90;;;;;;4977155;28;20201;-62
2020/12/11 04:21:27;;;;;;;44.47;17.08;;;2.20;99.90;;;;;;4977140;28;20184;-62
2020/12/11 04:23:52;;;;;;;38.40;14.17;;;2.20;99.90;;;;;;4976994;28;20250;-62
2020/12/11 04:26:18;;;;;;;38.90;17.40;;;2.20;99.90;;;;;;4977208;28;20180;-62
2020/12/11 04:28:43;;;;;;;42.33;18.13;;;2.20;99.90;;;;;;4977126;28;20530;-63
2020/12/11 04:31:09;;;;;;;46.83;19.80;;;2.20;99.90;;;;;;4977201;28;20262;-63
2020/12/11 04:33:35;;;;;;;39.08;15.40;;;2.30;99.90;;;;;;4976085;28;20192;-62
2020/12/11 04:36:00;;;;;;;39.30;17.27;;;2.20;99.90;;;;;;4976691;28;20530;-62
2020/12/11 04:38:26;;;;;;;38.10;14.57;;;2.20;99.90;;;;;;4977050;28;20218;-62
2020/12/11 04:40:59;;;;;;;41.23;17.33;;;2.20;99.90;;;;;;4976896;28;20246;-62
2020/12/11 04:43:25;;;;;;;34.65;15.27;;;2.20;99.90;;;;;;4976302;28;20212;-62
2020/12/11 04:45:51;;;;;;;43.73;18.73;;;2.20;99.90;;;;;;4976706;28;20215;-62
2020/12/11 04:48:16;;;;;;;45.73;16.77;;;2.30;99.90;;;;;;4977092;28;20438;-62
2020/12/11 04:50:44;;;;;;;37.27;17.13;;;2.30;99.90;;;;;;4976784;28;20427;-62
2020/12/11 04:53:14;;;;;;;39.45;16.27;;;2.30;99.90;;;;;;4976754;28;20188;-62
2020/12/11 04:55:44;;;;;;;42.33;17.45;;;2.50;99.90;;;;;;4976670;28;20239;-61
2020/12/11 04:58:16;;;;;;;43.60;17.77;;;2.50;99.90;;;;;;4956262;28;609004;-61
2020/12/11 05:00:42;;;;;;;44.75;16.08;;;2.30;99.90;;;;;;4978090;28;20180;-61
2020/12/11 05:03:13;;;;;;;39.40;17.33;;;2.30;99.90;;;;;;4976795;28;20727;-62
2020/12/11 05:05:40;;;;;;;39.05;17.33;;;2.40;99.90;;;;;;4977984;28;20191;-61
2020/12/11 05:08:21;;;;;;;45.20;18.38;;;2.30;99.90;;;;;;4977805;28;20495;-62
2020/12/11 05:10:47;;;;;;;37.75;16.77;;;2.20;99.90;;;;;;4977544;28;20635;-61
2020/12/11 05:13:17;;;;;;;38.05;16.00;;;2.20;99.90;;;;;;4977592;28;20211;-61
2020/12/11 05:15:43;;;;;;;39.70;15.70;;;2.30;99.90;;;;;;4975672;28;20569;-61
2020/12/11 05:18:17;;;;;;;37.53;15.20;;;2.30;99.90;;;;;;4977709;28;20176;-61
2020/12/11 05:20:43;;;;;;;32.85;15.80;;;2.20;99.90;;;;;;4977609;28;20313;-62
2020/12/11 05:23:08;;;;;;;45.07;18.70;;;2.20;99.90;;;;;;4976149;28;20270;-62
2020/12/11 05:25:34;;;;;;;35.00;15.50;;;2.30;99.90;;;;;;4977334;28;20423;-62
2020/12/11 05:28:00;;;;;;;36.77;15.23;;;2.20;99.90;;;;;;4960648;28;20282;-62
2020/12/11 05:30:26;;;;;;;41.92;16.30;;;2.20;99.90;;;;;;4977994;28;20641;-61
2020/12/11 05:32:56;;;;;;;34.63;17.33;;;2.20;99.90;;;;;;4976630;28;20211;-62
2020/12/11 05:35:28;;;;;;;36.15;15.07;;;2.30;99.90;;;;;;4977462;28;20270;-63
2020/12/11 05:37:57;;;;;;;35.88;14.68;;;2.30;99.90;;;;;;4977498;28;20266;-61
2020/12/11 05:40:27;;;;;;;36.03;15.85;;;2.30;99.90;;;;;;4977683;28;20203;-61
2020/12/11 05:43:13;;;;;;;47.70;17.08;;;2.50;99.90;;;;;;4976596;28;20172;-61
2020/12/11 05:45:46;;;;;;;41.17;16.70;;;2.40;99.90;;;;;;4977643;28;20251;-61
2020/12/11 05:48:12;;;;;;;40.72;15.95;;;2.50;99.90;;;;;;4977534;28;20326;-61
2020/12/11 05:50:37;;;;;;;41.97;16.80;;;2.60;99.90;;;;;;4977151;28;20628;-60
2020/12/11 05:53:03;;;;;;;37.53;15.83;;;2.60;99.90;;;;;;4976869;28;20259;-61
2020/12/11 05:55:28;;;;;;;42.60;17.50;;;2.60;99.90;;;;;;4975859;28;20703;-62
2020/12/11 05:57:56;;;;;;;42.27;17.17;;;2.50;99.90;;;;;;4976359;28;20585;-61
2020/12/11 06:00:22;;;;;;;42.33;17.98;;;2.40;99.90;;;;;;4975977;28;20585;-62
2020/12/11 06:02:49;;;;;;;37.75;17.17;;;2.40;99.90;;;;;;4976529;28;20199;-62
2020/12/11 06:05:19;;;;;;;46.88;19.23;;;2.40;99.90;;;;;;4976447;28;20271;-62
2020/12/11 06:07:47;;;;;;;47.40;18.15;;;2.50;99.90;;;;;;4976489;28;20199;-63
2020/12/11 06:10:14;;;;;;;38.47;17.25;;;2.50;99.90;;;;;;4976565;28;20190;-63
2020/12/11 06:12:41;;;;;;;48.53;18.63;;;2.50;99.90;;;;;;4976743;28;20226;-62
2020/12/11 06:15:13;;;;;;;37.42;15.88;;;2.40;99.90;;;;;;4976503;28;20183;-60
2020/12/11 06:17:46;;;;;;;48.42;17.60;;;2.50;99.90;;;;;;4976018;28;20628;-60
2020/12/11 06:20:15;;;;;;;39.47;17.38;;;2.50;99.90;;;;;;4976267;28;20222;-60
2020/12/11 06:22:44;;;;;;;43.65;17.50;;;2.40;99.90;;;;;;4976481;28;20176;-60
2020/12/11 06:25:30;;;;;;;44.47;18.85;;;2.40;99.90;;;;;;4976406;28;20554;-62
2020/12/11 06:27:57;;;;;;;44.80;18.17;;;2.40;99.90;;;;;;4975533;28;20278;-61
2020/12/11 06:30:33;;;;;;;47.08;19.58;;;2.40;99.90;;;;;;4976696;28;20187;-63
2020/12/11 06:33:00;;;;;;;34.85;17.63;;;2.40;99.90;;;;;;4976292;28;20274;-63
2020/12/11 06:35:27;;;;;;;42.92;18.17;;;2.40;99.90;;;;;;4976049;28;20184;-62
2020/12/11 06:37:53;;;;;;;47.42;18.80;;;2.40;99.90;;;;;;4976358;28;20227;-61
2020/12/11 06:40:48;;;;;;;46.10;18.85;;;2.30;99.90;;;;;;4976193;28;20190;-62
2020/12/11 06:43:38;;;;;;;47.17;18.50;;;2.30;99.90;;;;;;4969673;28;20230;-60
2020/12/11 06:46:21;;;;;;;40.38;18.90;;;2.40;99.90;;;;;;4976071;28;20180;-60
2020/12/11 06:49:09;;;;;;;53.75;20.13;;;2.50;99.90;;;;;;4975824;28;20191;-62
2020/12/11 06:51:47;;;;;;;50.92;19.00;;;2.50;99.90;;;;;;4975812;28;20210;-61
2020/12/11 06:54:13;;;;;;;47.75;17.73;;;2.40;99.90;;;;;;4975768;28;20193;-61
2020/12/11 06:56:40;;;;;;;49.00;21.23;;;2.50;99.90;;;;;;4975582;28;20273;-61
2020/12/11 06:59:18;;;;;;;48.90;21.58;;;2.60;99.90;;;;;;4975300;28;20191;-61
2020/12/11 07:01:43;;;;;;;49.00;20.58;;;2.40;99.90;;;;;;4975449;28;20516;-62
2020/12/11 07:04:09;;;;;;;50.63;18.80;;;2.40;99.90;;;;;;4975340;28;20176;-62
2020/12/11 07:06:34;;;;;;;48.77;20.93;;;2.60;99.90;;;;;;4975551;28;20195;-62
2020/12/11 07:09:03;;;;;;;50.60;18.97;;;2.50;99.90;;;;;;4974780;28;20509;-61
2020/12/11 07:11:29;;;;;;;49.08;22.45;;;2.70;99.90;;;;;;4974411;28;20188;-61
2020/12/11 07:13:55;;;;;;;52.83;20.73;;;2.60;99.90;;;;;;4975189;28;20253;-61
2020/12/11 07:16:21;;;;;;;39.57;18.37;;;2.40;99.90;;;;;;4975245;28;20466;-61
2020/12/11 07:18:47;;;;;;;52.67;20.13;;;2.50;99.90;;;;;;4975218;28;20546;-62
2020/12/11 07:21:13;;;;;;;52.30;18.30;;;2.60;99.90;;;;;;4975315;28;20176;-63
2020/12/11 07:23:39;;;;;;;46.63;18.02;;;2.60;99.90;;;;;;4974058;28;20237;-63
2020/12/11 07:26:05;;;;;;;51.08;19.42;;;2.50;99.90;;;;;;4974980;28;20176;-63
2020/12/11 07:28:31;;;;;;;36.83;16.93;;;2.40;99.90;;;;;;4974051;28;20258;-62
2020/12/11 07:30:57;;;;;;;53.73;21.77;;;2.30;99.90;;;;;;4973852;28;20514;-63
2020/12/11 07:33:32;;;;;;;63.60;21.27;;;2.40;99.90;;;;;;4973797;28;20431;-63
2020/12/11 07:36:00;;;;;;;55.88;20.27;;;2.40;99.90;;;;;;4975473;28;20207;-64
2020/12/11 07:38:27;;;;;;;49.03;20.33;;;2.40;99.90;;;;;;4975143;28;20180;-63
2020/12/11 07:40:57;;;;;;;47.92;18.23;;;2.40;99.90;;;;;;4974369;28;20271;-63
2020/12/11 07:43:23;;;;;;;59.40;24.17;;;2.40;99.90;;;;;;4979093;28;20204;-63
2020/12/11 07:45:49;;;;;;;48.58;20.60;;;2.30;99.90;;;;;;4985824;28;20589;-63
2020/12/11 07:48:17;;;;;;;49.80;20.27;;;2.30;99.90;;;;;;4973625;28;20207;-64
2020/12/11 07:50:45;;;;;;;55.33;21.13;;;2.40;99.90;;;;;;4963676;28;20462;-63
2020/12/11 07:53:12;;;;;;;51.85;20.33;;;2.40;99.90;;;;;;4974610;28;20517;-63
2020/12/11 07:55:38;;;;;;;61.40;22.63;;;2.50;99.90;;;;;;4974693;28;20208;-63
2020/12/11 07:58:04;;;;;;;46.73;20.10;;;2.50;99.90;;;;;;4977664;28;20250;-63
2020/12/11 08:00:35;;;;;;;47.93;23.10;;;2.50;99.90;;;;;;4973505;28;20455;-63
2020/12/11 08:03:07;;;;;;;55.55;21.65;;;2.60;99.90;;;;;;4978134;28;20443;-63
2020/12/11 08:05:37;;;;;;;60.53;22.73;;;2.40;99.90;;;;;;4974910;28;20206;-62
2020/12/11 08:08:04;;;;;;;61.67;23.48;;;2.30;99.90;;;;;;4973730;28;20184;-61
2020/12/11 08:10:41;;;;;;;57.50;24.20;;;2.40;99.90;;;;;;4973918;28;20219;-62
2020/12/11 08:13:12;;;;;;;58.17;23.83;;;2.60;99.90;;;;;;4973826;28;20180;-62
2020/12/11 08:15:39;;;;;;;60.55;23.10;;;2.70;99.90;;;;;;4975812;28;20216;-62
2020/12/11 08:18:10;;;;;;;59.40;23.20;;;2.60;99.90;;;;;;4974696;28;20238;-62
2020/12/11 08:20:48;;;;;;;64.93;21.63;;;2.50;99.90;;;;;;4974021;28;20180;-61
2020/12/11 08:23:26;;;;;;;62.10;22.48;;;2.40;99.90;;;;;;4973907;28;20179;-61
2020/12/11 08:26:10;;;;;;;53.55;20.50;;;2.40;99.90;;;;;;4973564;28;20195;-61
2020/12/11 08:28:37;;;;;;;53.17;18.83;;;2.40;99.90;;;;;;4973866;28;20191;-61
2020/12/11 08:31:23;;;;;;;50.72;21.90;;;2.30;99.90;;;;;;4973888;28;20501;-62
2020/12/11 08:33:50;;;;;;;66.97;22.35;;;2.40;99.90;;;;;;4974051;28;20180;-62
2020/12/11 08:36:21;;;;;;;51.25;21.05;;;2.40;99.90;;;;;;4973777;28;20208;-62
2020/12/11 08:39:37;;;;;;;65.55;23.73;;;2.40;99.90;;;;;;4974127;28;20199;-62
2020/12/11 08:42:22;;;;;;;56.13;21.60;;;2.40;99.90;;;;;;4941568;28;20534;-62
2020/12/11 08:52:31;;;;;;;69.43;24.65;;;2.30;99.90;;;;;;4997428;28;20274;-60
2020/12/11 08:54:57;;;;;;;66.57;25.17;;;2.30;99.90;;;;;;4996527;28;20266;-60
2020/12/11 08:57:25;;;;;;;57.70;22.60;;;2.40;99.90;;;;;;4996986;28;20258;-60
2020/12/11 08:59:50;;;;;;;51.47;21.48;;;2.50;99.90;;;;;;4996264;28;20452;-60
2020/12/11 09:02:16;;;;;;;61.13;24.37;;;2.40;99.90;;;;;;4977631;28;20180;-60
2020/12/11 09:04:41;;;;;;;62.77;23.20;;;2.40;99.90;;;;;;4976252;28;20180;-61
2020/12/11 09:07:07;;;;;;;61.20;25.67;;;2.50;99.90;;;;;;4976753;28;20188;-60
2020/12/11 09:09:33;;;;;;;57.70;22.00;;;2.60;99.90;;;;;;4977707;28;20552;-61
2020/12/11 09:11:58;;;;;;;60.37;21.10;;;2.40;99.90;;;;;;4987834;28;20614;-61
2020/12/11 09:14:24;;;;;;;58.93;25.27;;;2.40;99.90;;;;;;4981911;28;20482;-60
2020/12/11 09:16:49;;;;;;;71.07;24.10;;;2.50;99.90;;;;;;4987053;28;20612;-61
2020/12/11 09:19:16;;;;;;;45.17;18.73;;;2.60;99.90;;;;;;4979322;28;20675;-61
2020/12/11 09:21:42;;;;;;;52.28;21.25;;;2.60;99.90;;;;;;4979637;28;20259;-61
2020/12/11 09:24:09;;;;;;;52.17;22.43;;;2.50;99.90;;;;;;4979362;28;20598;-60
2020/12/11 09:26:35;;;;;;;55.50;21.88;;;2.50;99.90;;;;;;4979798;28;20188;-61
2020/12/11 09:29:13;;;;;;;55.50;21.37;;;2.50;99.90;;;;;;4995284;28;20656;-61
2020/12/11 09:31:42;;;;;;;53.88;22.60;;;2.50;99.90;;;;;;4996389;28;20183;-61
2020/12/11 09:34:07;;;;;;;55.03;20.55;;;2.50;99.90;;;;;;4996206;28;20525;-61
2020/12/11 09:36:33;;;;;;;69.93;22.43;;;2.50;99.90;;;;;;4995699;28;20207;-61
2020/12/11 09:38:58;;;;;;;59.50;22.60;;;2.50;99.90;;;;;;4995729;28;20179;-61
2020/12/11 09:41:29;;;;;;;57.33;21.90;;;2.60;99.90;;;;;;4995966;28;20731;-60
2020/12/11 09:45:06;;;;;;;50.10;21.80;;;2.70;99.90;;;;;;4994246;28;20616;-61
2020/12/11 09:47:00;;;;;;;47.45;18.95;;;2.70;99.90;;;;;;4974173;28;20202;-61
2020/12/11 09:49:43;;;;;;;62.78;22.83;;;2.60;99.90;;;;;;4990276;28;20180;-63
2020/12/11 09:54:46;;;;;;;66.95;25.38;;;2.60;99.90;;;;;;4995896;28;20210;-61
2020/12/11 09:57:12;;;;;;;59.20;22.80;;;2.70;99.90;;;;;;4995966;28;20387;-64
2020/12/11 09:59:48;;;;;;;49.50;20.97;;;2.70;99.90;;;;;;4993954;28;20326;-63
2020/12/11 10:04:47;;;;;;;56.03;21.85;;;2.80;99.90;;;;;;4975263;28;20176;-61
2020/12/11 10:07:13;;;;;;;52.90;21.42;;;2.80;99.90;;;;;;4976444;28;20181;-64
2020/12/11 10:09:40;;;;;;;47.97;22.83;;;2.80;99.90;;;;;;4976680;28;20197;-63
2020/12/11 10:12:06;;;;;;;56.85;21.50;;;2.90;99.90;;;;;;4976660;28;20616;-64
2020/12/11 10:14:34;;;;;;;53.75;22.65;;;2.90;99.90;;;;;;4975982;28;20441;-63
2020/12/11 10:16:59;;;;;;;58.25;23.58;;;3.00;99.90;;;;;;4975937;28;20258;-65
2020/12/11 10:19:25;;;;;;;59.47;24.13;;;3.00;98.90;;;;;;4990058;28;20180;-66
2020/12/11 10:21:52;;;;;;;55.70;21.90;;;3.00;91.40;;;;;;4994987;28;20533;-66
2020/12/11 10:24:19;;;;;;;63.10;21.70;;;3.20;99.90;;;;;;4993232;28;20772;-64
2020/12/11 10:26:45;;;;;;;50.97;22.45;;;4.00;99.90;;;;;;4976030;28;20256;-65
2020/12/11 10:29:11;;;;;;;50.58;23.40;;;4.30;99.90;;;;;;4975881;28;20251;-65
2020/12/11 10:31:41;;;;;;;47.90;19.40;;;4.00;1.00;;;;;;4975839;28;20184;-65
2020/12/11 10:34:09;;;;;;;53.42;22.45;;;3.60;1.00;;;;;;4975685;28;20621;-65
2020/12/11 10:36:34;;;;;;;53.50;23.67;;;3.40;1.00;;;;;;4975756;28;20545;-64
2020/12/11 10:39:00;;;;;;;51.07;21.10;;;3.30;1.00;;;;;;4974756;28;20203;-67
2020/12/11 10:41:27;;;;;;;45.80;19.67;;;3.20;1.00;;;;;;4975585;28;20271;-63
2020/12/11 10:43:53;;;;;;;50.38;21.65;;;3.00;1.00;;;;;;4975260;28;20182;-62
2020/12/11 10:46:19;;;;;;;46.60;21.25;;;3.00;1.00;;;;;;4975512;28;20322;-61
2020/12/11 10:48:45;;;;;;;54.40;21.20;;;2.90;1.00;;;;;;4975538;28;20493;-62
2020/12/11 10:51:12;;;;;;;44.63;21.63;;;3.00;1.00;;;;;;4976244;28;20180;-60
2020/12/11 10:53:38;;;;;;;46.50;21.42;;;3.10;1.00;;;;;;4975170;28;20765;-64
2020/12/11 10:56:05;;;;;;;53.17;20.50;;;3.20;1.00;;;;;;4974681;28;20624;-61
2020/12/11 10:58:31;;;;;;;45.20;19.48;;;3.10;1.00;;;;;;4974137;28;20261;-62
2020/12/11 11:00:56;;;;;;;44.30;19.13;;;3.10;1.00;;;;;;4974267;28;20587;-66
2020/12/11 11:03:22;;;;;;;49.30;20.63;;;3.10;1.00;;;;;;4973498;28;20291;-63
2020/12/11 11:05:48;;;;;;;46.50;19.50;;;3.10;1.00;;;;;;4975145;28;20525;-63
2020/12/11 11:08:15;;;;;;;44.60;20.07;;;3.10;1.00;;;;;;4974872;28;20184;-62
2020/12/11 11:10:43;;;;;;;54.22;22.60;;;3.10;1.00;;;;;;4974967;28;20610;-63
2020/12/11 11:13:25;;;;;;;50.85;22.38;;;3.10;1.00;;;;;;4974071;28;20180;-62
2020/12/11 11:15:53;;;;;;;46.03;19.88;;;3.20;1.00;;;;;;4975213;28;20206;-62
2020/12/11 11:23:45;;;;;;;42.38;18.63;;;3.10;1.00;;;;;;4994050;28;20171;-63
2020/12/11 11:26:57;;;;;;;46.60;19.40;;;3.00;1.00;;;;;;4994217;28;20195;-62
2020/12/11 11:29:00;;;;;;;42.90;19.33;;;3.00;1.00;;;;;;4991043;28;20206;-63
2020/12/11 11:31:25;;;;;;;49.27;20.17;;;2.90;1.00;;;;;;4994155;28;20469;-63
2020/12/11 11:33:51;;;;;;;59.37;20.73;;;2.90;1.00;;;;;;4979483;28;20526;-63
2020/12/11 11:36:17;;;;;;;45.85;21.08;;;3.00;1.00;;;;;;4974630;28;20207;-63
2020/12/11 11:38:43;;;;;;;51.10;19.00;;;3.00;1.00;;;;;;4974445;28;20192;-63
2020/12/11 11:41:08;;;;;;;60.50;21.10;;;3.10;1.00;;;;;;4974334;28;20624;-63
2020/12/11 11:46:18;;;;;;;59.05;22.48;;;3.30;1.00;;;;;;4974581;28;20179;-64
2020/12/11 11:48:45;;;;;;;49.37;20.63;;;3.20;1.00;;;;;;4975182;28;20275;-64
2020/12/11 11:51:19;;;;;;;49.53;21.13;;;3.10;1.00;;;;;;4988634;28;20666;-64
2020/12/11 11:53:45;;;;;;;51.35;20.05;;;3.30;1.00;;;;;;4995628;28;20294;-64
2020/12/11 11:56:11;;;;;;;52.33;22.13;;;3.40;1.00;;;;;;4994727;28;20301;-64
2020/12/11 11:58:37;;;;;;;53.03;21.17;;;3.30;1.00;;;;;;4995141;28;20210;-63
2020/12/11 12:01:02;;;;;;;48.57;20.67;;;3.20;1.00;;;;;;4984937;28;20249;-64
2020/12/11 12:03:30;;;;;;;48.70;20.50;;;3.30;1.00;;;;;;4975074;28;20426;-63
2020/12/11 12:05:56;;;;;;;42.50;20.15;;;3.20;1.00;;;;;;4976414;28;20500;-64
2020/12/11 12:08:21;;;;;;;40.90;18.03;;;3.20;1.00;;;;;;4977271;28;20190;-63
2020/12/11 12:10:48;;;;;;;48.73;20.73;;;3.20;1.00;;;;;;4975944;28;20176;-65
2020/12/11 12:13:13;;;;;;;46.53;21.88;;;3.20;1.00;;;;;;4976666;28;20243;-64
2020/12/11 12:15:39;;;;;;;52.30;21.33;;;3.30;1.00;;;;;;4978718;28;20210;-66
2020/12/11 12:18:12;;;;;;;44.00;22.17;;;3.30;1.00;;;;;;4982308;28;20609;-67
2020/12/11 12:30:54;;;;;;;50.38;20.55;;;3.30;1.00;;;;;;4978291;28;20183;-63
2020/12/11 12:43:27;;;;;;;51.10;20.02;;;3.40;1.00;;;;;;4977612;28;20176;-62
2020/12/11 12:45:53;;;;;;;44.93;20.03;;;3.40;1.00;;;;;;4980757;28;20299;-62
2020/12/11 12:48:18;;;;;;;50.60;20.77;;;3.40;1.00;;;;;;4977895;28;20574;-62
2020/12/11 12:50:44;;;;;;;38.93;18.13;;;3.40;1.00;;;;;;4987300;28;20588;-63
2020/12/11 12:53:09;;;;;;;52.33;19.90;;;3.40;1.00;;;;;;4996604;28;20629;-63
2020/12/11 12:55:43;;;;;;;42.30;18.37;;;3.50;1.00;;;;;;4996988;28;20241;-63
2020/12/11 12:58:11;;;;;;;45.20;17.52;;;3.50;1.00;;;;;;4996895;28;20632;-63
2020/12/11 13:00:51;;;;;;;40.10;19.35;;;3.50;1.00;;;;;;4989458;28;20199;-63
2020/12/11 13:05:48;;;;;;;40.72;20.77;;;3.20;1.00;;;;;;4977775;28;20177;-61
2020/12/11 13:08:13;;;;;;;43.70;17.73;;;3.20;1.00;;;;;;4982145;28;20199;-63
2020/12/11 13:10:39;;;;;;;46.43;22.40;;;3.20;1.00;;;;;;4980262;28;20215;-65
2020/12/11 13:13:08;;;;;;;36.30;18.37;;;3.30;1.00;;;;;;4977309;28;20184;-62
2020/12/11 13:15:35;;;;;;;42.80;20.23;;;3.20;1.00;;;;;;4977463;28;20208;-62
2020/12/11 13:18:00;;;;;;;47.20;20.55;;;3.20;1.00;;;;;;4979376;28;20544;-62
2020/12/11 13:20:33;;;;;;;41.93;19.90;;;3.20;1.00;;;;;;4979109;28;20262;-61
2020/12/11 13:26:00;;;;;;;35.88;18.85;;;3.20;1.00;;;;;;4977069;28;20195;-62
2020/12/11 13:28:25;;;;;;;39.80;18.17;;;3.10;1.00;;;;;;4975324;28;20184;-62